sensor_id;sensor_type;location;lat;lon;timestamp;pressure;altitude;pressure_sealevel;temperature;humidity
75136;BME280;63707;52.212;9.540;2023-06-14T00:01:17;100127.31;;;13.34;100.00
75136;BME280;63707;52.212;9.540;2023-06-14T00:03:46;100135.16;;;13.49;100.00
75136;BME280;63707;52.212;9.540;2023-06-14T00:06:12;100134.00;;;13.38;100.00
75136;BME280;63707;52.212;9.540;2023-06-14T00:08:38;100133.28;;;13.49;100.00
75136;BME280;63707;52.212;9.540;2023-06-14T00:11:06;100142.16;;;13.45;100.00
75136;BME280;63707;52.212;9.540;2023-06-14T00:13:31;100143.78;;;13.28;100.00
75136;BME280;63707;52.212;9.540;2023-06-14T00:15:57;100141.38;;;13.38;100.00
75136;BME280;63707;52.212;9.540;2023-06-14T00:18:22;100142.66;;;13.35;100.00
75136;BME280;63707;52.212;9.540;2023-06-14T00:20:56;100141.19;;;13.33;100.00
75136;BME280;63707;52.212;9.540;2023-06-14T00:23:21;100134.13;;;13.18;100.00
75136;BME280;63707;52.212;9.540;2023-06-14T00:25:47;100139.75;;;13.30;100.00
75136;BME280;63707;52.212;9.540;2023-06-14T00:28:13;100133.22;;;13.31;100.00
75136;BME280;63707;52.212;9.540;2023-06-14T00:30:38;100140.47;;;13.12;100.00
75136;BME280;63707;52.212;9.540;2023-06-14T00:33:04;100134.63;;;13.02;100.00
75136;BME280;63707;52.212;9.540;2023-06-14T00:35:30;100145.22;;;12.92;100.00
75136;BME280;63707;52.212;9.540;2023-06-14T00:37:56;100140.63;;;12.86;100.00
75136;BME280;63707;52.212;9.540;2023-06-14T00:40:22;100137.41;;;12.96;100.00
75136;BME280;63707;52.212;9.540;2023-06-14T00:42:48;100139.31;;;12.95;100.00
75136;BME280;63707;52.212;9.540;2023-06-14T00:45:13;100145.09;;;12.80;100.00
75136;BME280;63707;52.212;9.540;2023-06-14T00:47:41;100143.03;;;12.69;100.00
75136;BME280;63707;52.212;9.540;2023-06-14T00:50:09;100143.63;;;12.78;100.00
75136;BME280;63707;52.212;9.540;2023-06-14T00:52:35;100145.44;;;12.90;100.00
75136;BME280;63707;52.212;9.540;2023-06-14T00:55:03;100145.75;;;13.07;100.00
75136;BME280;63707;52.212;9.540;2023-06-14T00:57:30;100155.38;;;12.85;100.00
75136;BME280;63707;52.212;9.540;2023-06-14T00:59:55;100152.06;;;13.08;100.00
75136;BME280;63707;52.212;9.540;2023-06-14T01:02:21;100156.13;;;12.99;100.00
75136;BME280;63707;52.212;9.540;2023-06-14T01:04:48;100157.50;;;12.76;100.00
75136;BME280;63707;52.212;9.540;2023-06-14T01:07:23;100150.59;;;12.67;100.00
75136;BME280;63707;52.212;9.540;2023-06-14T01:10:09;100155.50;;;12.52;100.00
75136;BME280;63707;52.212;9.540;2023-06-14T01:12:46;100158.97;;;12.79;100.00
75136;BME280;63707;52.212;9.540;2023-06-14T01:15:14;100154.22;;;12.61;100.00
75136;BME280;63707;52.212;9.540;2023-06-14T01:17:41;100164.53;;;12.59;100.00
75136;BME280;63707;52.212;9.540;2023-06-14T01:20:10;100160.38;;;12.43;100.00
75136;BME280;63707;52.212;9.540;2023-06-14T01:22:49;100163.97;;;12.37;100.00
75136;BME280;63707;52.212;9.540;2023-06-14T01:25:15;100158.25;;;12.52;100.00
75136;BME280;63707;52.212;9.540;2023-06-14T01:27:42;100162.19;;;12.63;100.00
75136;BME280;63707;52.212;9.540;2023-06-14T01:30:08;100159.56;;;12.36;100.00
75136;BME280;63707;52.212;9.540;2023-06-14T01:32:35;100152.59;;;12.47;100.00
75136;BME280;63707;52.212;9.540;2023-06-14T01:35:01;100159.72;;;12.54;100.00
75136;BME280;63707;52.212;9.540;2023-06-14T01:37:30;100155.47;;;12.58;100.00
75136;BME280;63707;52.212;9.540;2023-06-14T01:39:57;100160.75;;;12.53;100.00
75136;BME280;63707;52.212;9.540;2023-06-14T01:42:23;100157.06;;;12.35;100.00
75136;BME280;63707;52.212;9.540;2023-06-14T01:44:53;100159.59;;;12.23;100.00
75136;BME280;63707;52.212;9.540;2023-06-14T01:47:19;100153.94;;;12.18;100.00
75136;BME280;63707;52.212;9.540;2023-06-14T01:49:46;100158.38;;;12.06;100.00
75136;BME280;63707;52.212;9.540;2023-06-14T01:52:12;100160.91;;;12.07;100.00
75136;BME280;63707;52.212;9.540;2023-06-14T01:54:38;100161.31;;;12.11;100.00
75136;BME280;63707;52.212;9.540;2023-06-14T01:57:09;100152.28;;;12.04;100.00
75136;BME280;63707;52.212;9.540;2023-06-14T01:59:35;100154.31;;;12.28;100.00
75136;BME280;63707;52.212;9.540;2023-06-14T02:02:02;100148.78;;;12.54;100.00
75136;BME280;63707;52.212;9.540;2023-06-14T02:04:29;100150.03;;;12.52;100.00
75136;BME280;63707;52.212;9.540;2023-06-14T02:06:55;100159.56;;;12.29;100.00
75136;BME280;63707;52.212;9.540;2023-06-14T02:09:20;100154.59;;;12.07;100.00
75136;BME280;63707;52.212;9.540;2023-06-14T02:11:46;100158.00;;;11.89;100.00
75136;BME280;63707;52.212;9.540;2023-06-14T02:14:13;100161.78;;;11.88;100.00
75136;BME280;63707;52.212;9.540;2023-06-14T02:16:40;100156.03;;;12.16;100.00
75136;BME280;63707;52.212;9.540;2023-06-14T02:19:05;100166.19;;;11.89;100.00
75136;BME280;63707;52.212;9.540;2023-06-14T02:21:31;100157.34;;;11.74;100.00
75136;BME280;63707;52.212;9.540;2023-06-14T02:23:56;100166.19;;;11.89;100.00
75136;BME280;63707;52.212;9.540;2023-06-14T02:26:23;100167.88;;;11.83;100.00
75136;BME280;63707;52.212;9.540;2023-06-14T02:28:49;100168.63;;;12.23;100.00
75136;BME280;63707;52.212;9.540;2023-06-14T02:31:16;100180.38;;;12.24;100.00
75136;BME280;63707;52.212;9.540;2023-06-14T02:33:41;100177.31;;;12.01;100.00
75136;BME280;63707;52.212;9.540;2023-06-14T02:36:07;100183.38;;;12.03;100.00
75136;BME280;63707;52.212;9.540;2023-06-14T02:38:32;100173.53;;;11.82;100.00
75136;BME280;63707;52.212;9.540;2023-06-14T02:40:58;100180.06;;;11.87;100.00
75136;BME280;63707;52.212;9.540;2023-06-14T02:43:25;100182.75;;;11.74;100.00
75136;BME280;63707;52.212;9.540;2023-06-14T02:45:51;100180.63;;;11.76;100.00
75136;BME280;63707;52.212;9.540;2023-06-14T02:48:18;100178.56;;;11.65;100.00
75136;BME280;63707;52.212;9.540;2023-06-14T02:50:44;100180.06;;;11.87;100.00
75136;BME280;63707;52.212;9.540;2023-06-14T02:53:09;100179.19;;;11.67;100.00
75136;BME280;63707;52.212;9.540;2023-06-14T02:55:35;100187.16;;;11.55;100.00
75136;BME280;63707;52.212;9.540;2023-06-14T02:58:05;100187.78;;;11.64;100.00
75136;BME280;63707;52.212;9.540;2023-06-14T03:00:30;100186.56;;;11.93;100.00
75136;BME280;63707;52.212;9.540;2023-06-14T03:02:56;100189.09;;;11.88;100.00
75136;BME280;63707;52.212;9.540;2023-06-14T03:05:22;100191.56;;;12.16;100.00
75136;BME280;63707;52.212;9.540;2023-06-14T03:07:49;100185.94;;;11.84;100.00
75136;BME280;63707;52.212;9.540;2023-06-14T03:10:15;100184.00;;;11.65;100.00
75136;BME280;63707;52.212;9.540;2023-06-14T03:12:41;100199.75;;;11.70;100.00
75136;BME280;63707;52.212;9.540;2023-06-14T03:15:08;100205.44;;;11.55;100.00
75136;BME280;63707;52.212;9.540;2023-06-14T03:17:34;100203.53;;;11.75;100.00
75136;BME280;63707;52.212;9.540;2023-06-14T03:20:00;100203.97;;;11.52;100.00
75136;BME280;63707;52.212;9.540;2023-06-14T03:22:27;100201.44;;;11.51;100.00
75136;BME280;63707;52.212;9.540;2023-06-14T03:24:53;100207.31;;;11.61;100.00
75136;BME280;63707;52.212;9.540;2023-06-14T03:27:19;100210.09;;;11.87;100.00
75136;BME280;63707;52.212;9.540;2023-06-14T03:29:44;100211.97;;;12.00;100.00
75136;BME280;63707;52.212;9.540;2023-06-14T03:32:10;100210.69;;;12.03;100.00
75136;BME280;63707;52.212;9.540;2023-06-14T03:34:35;100209.88;;;11.89;100.00
75136;BME280;63707;52.212;9.540;2023-06-14T03:37:04;100211.53;;;12.10;100.00
75136;BME280;63707;52.212;9.540;2023-06-14T03:39:31;100208.94;;;12.48;100.00
75136;BME280;63707;52.212;9.540;2023-06-14T03:41:57;100210.63;;;12.29;100.00
75136;BME280;63707;52.212;9.540;2023-06-14T03:44:22;100219.88;;;12.41;100.00
75136;BME280;63707;52.212;9.540;2023-06-14T03:46:48;100216.75;;;12.31;100.00
75136;BME280;63707;52.212;9.540;2023-06-14T03:49:13;100219.88;;;12.28;100.00
75136;BME280;63707;52.212;9.540;2023-06-14T03:51:41;100223.41;;;12.55;100.00
75136;BME280;63707;52.212;9.540;2023-06-14T03:54:07;100220.88;;;12.53;100.00
75136;BME280;63707;52.212;9.540;2023-06-14T03:56:34;100224.84;;;12.64;100.00
75136;BME280;63707;52.212;9.540;2023-06-14T03:59:00;100226.53;;;12.65;100.00
75136;BME280;63707;52.212;9.540;2023-06-14T04:01:26;100222.50;;;12.74;100.00
75136;BME280;63707;52.212;9.540;2023-06-14T04:03:55;100223.78;;;12.65;100.00
75136;BME280;63707;52.212;9.540;2023-06-14T04:06:20;100232.78;;;12.85;100.00
75136;BME280;63707;52.212;9.540;2023-06-14T04:08:46;100223.03;;;12.96;100.00
75136;BME280;63707;52.212;9.540;2023-06-14T04:11:14;100230.63;;;12.94;100.00
75136;BME280;63707;52.212;9.540;2023-06-14T04:13:42;100232.72;;;12.99;100.00
75136;BME280;63707;52.212;9.540;2023-06-14T04:16:07;100233.63;;;12.86;100.00
75136;BME280;63707;52.212;9.540;2023-06-14T04:18:33;100236.88;;;13.08;100.00
75136;BME280;63707;52.212;9.540;2023-06-14T04:20:58;100244.63;;;13.11;100.00
75136;BME280;63707;52.212;9.540;2023-06-14T04:23:24;100241.06;;;13.17;100.00
75136;BME280;63707;52.212;9.540;2023-06-14T04:25:50;100245.03;;;13.21;100.00
75136;BME280;63707;52.212;9.540;2023-06-14T04:28:15;100252.16;;;13.29;100.00
75136;BME280;63707;52.212;9.540;2023-06-14T04:30:44;100250.84;;;13.38;100.00
75136;BME280;63707;52.212;9.540;2023-06-14T04:33:10;100254.19;;;13.40;100.00
75136;BME280;63707;52.212;9.540;2023-06-14T04:35:36;100252.13;;;13.35;100.00
75136;BME280;63707;52.212;9.540;2023-06-14T04:38:02;100261.56;;;13.39;100.00
75136;BME280;63707;52.212;9.540;2023-06-14T04:40:30;100264.94;;;13.41;100.00
75136;BME280;63707;52.212;9.540;2023-06-14T04:42:55;100262.41;;;13.40;100.00
75136;BME280;63707;52.212;9.540;2023-06-14T04:45:21;100259.50;;;13.35;100.00
75136;BME280;63707;52.212;9.540;2023-06-14T04:47:48;100264.06;;;13.47;100.00
75136;BME280;63707;52.212;9.540;2023-06-14T04:50:14;100270.97;;;13.50;100.00
75136;BME280;63707;52.212;9.540;2023-06-14T04:52:40;100269.13;;;13.44;100.00
75136;BME280;63707;52.212;9.540;2023-06-14T04:55:06;100270.50;;;13.60;100.00
75136;BME280;63707;52.212;9.540;2023-06-14T04:57:32;100272.72;;;13.76;100.00
75136;BME280;63707;52.212;9.540;2023-06-14T04:59:57;100281.16;;;13.74;100.00
75136;BME280;63707;52.212;9.540;2023-06-14T05:02:23;100275.00;;;13.79;100.00
75136;BME280;63707;52.212;9.540;2023-06-14T05:04:50;100274.63;;;13.75;100.00
75136;BME280;63707;52.212;9.540;2023-06-14T05:07:16;100277.38;;;13.69;100.00
75136;BME280;63707;52.212;9.540;2023-06-14T05:09:42;100288.63;;;13.54;100.00
75136;BME280;63707;52.212;9.540;2023-06-14T05:12:07;100281.22;;;13.93;100.00
75136;BME280;63707;52.212;9.540;2023-06-14T05:14:33;100291.78;;;13.89;100.00
75136;BME280;63707;52.212;9.540;2023-06-14T05:17:00;100285.13;;;14.03;100.00
75136;BME280;63707;52.212;9.540;2023-06-14T05:19:25;100288.81;;;14.15;100.00
75136;BME280;63707;52.212;9.540;2023-06-14T05:21:53;100283.75;;;14.19;100.00
75136;BME280;63707;52.212;9.540;2023-06-14T05:24:18;100280.50;;;13.79;100.00
75136;BME280;63707;52.212;9.540;2023-06-14T05:26:44;100286.34;;;14.07;100.00
75136;BME280;63707;52.212;9.540;2023-06-14T05:29:09;100287.47;;;14.00;100.00
75136;BME280;63707;52.212;9.540;2023-06-14T05:31:35;100287.72;;;14.23;100.00
75136;BME280;63707;52.212;9.540;2023-06-14T05:34:00;100284.75;;;14.25;100.00
75136;BME280;63707;52.212;9.540;2023-06-14T05:36:26;100289.56;;;14.54;100.00
75136;BME280;63707;52.212;9.540;2023-06-14T05:38:55;100296.81;;;14.17;100.00
75136;BME280;63707;52.212;9.540;2023-06-14T05:41:25;100293.91;;;14.37;100.00
75136;BME280;63707;52.212;9.540;2023-06-14T05:43:51;100300.53;;;14.29;100.00
75136;BME280;63707;52.212;9.540;2023-06-14T05:46:16;100301.81;;;14.52;100.00
75136;BME280;63707;52.212;9.540;2023-06-14T05:48:47;100291.06;;;14.25;100.00
75136;BME280;63707;52.212;9.540;2023-06-14T05:51:12;100299.13;;;14.70;100.00
75136;BME280;63707;52.212;9.540;2023-06-14T05:53:38;100304.59;;;14.70;100.00
75136;BME280;63707;52.212;9.540;2023-06-14T05:56:05;100305.59;;;14.75;100.00
75136;BME280;63707;52.212;9.540;2023-06-14T05:58:30;100302.31;;;14.85;100.00
75136;BME280;63707;52.212;9.540;2023-06-14T06:00:56;100295.66;;;15.11;100.00
75136;BME280;63707;52.212;9.540;2023-06-14T06:03:23;100305.28;;;15.20;100.00
75136;BME280;63707;52.212;9.540;2023-06-14T06:05:48;100306.97;;;14.66;100.00
75136;BME280;63707;52.212;9.540;2023-06-14T06:08:14;100306.13;;;15.21;100.00
75136;BME280;63707;52.212;9.540;2023-06-14T06:10:39;100310.25;;;15.60;100.00
75136;BME280;63707;52.212;9.540;2023-06-14T06:13:06;100313.06;;;15.53;100.00
75136;BME280;63707;52.212;9.540;2023-06-14T06:15:32;100319.94;;;15.14;100.00
75136;BME280;63707;52.212;9.540;2023-06-14T06:17:57;100316.47;;;15.37;100.00
75136;BME280;63707;52.212;9.540;2023-06-14T06:20:23;100317.38;;;15.31;100.00
75136;BME280;63707;52.212;9.540;2023-06-14T06:22:53;100319.88;;;15.51;100.00
75136;BME280;63707;52.212;9.540;2023-06-14T06:25:18;100311.00;;;15.49;100.00
75136;BME280;63707;52.212;9.540;2023-06-14T06:27:45;100313.53;;;15.50;100.00
75136;BME280;63707;52.212;9.540;2023-06-14T06:30:13;100304.72;;;15.30;100.00
75136;BME280;63707;52.212;9.540;2023-06-14T06:32:38;100310.47;;;15.88;100.00
75136;BME280;63707;52.212;9.540;2023-06-14T06:35:05;100326.06;;;16.06;100.00
75136;BME280;63707;52.212;9.540;2023-06-14T06:37:32;100323.13;;;16.31;100.00
75136;BME280;63707;52.212;9.540;2023-06-14T06:39:57;100331.16;;;16.56;100.00
75136;BME280;63707;52.212;9.540;2023-06-14T06:42:23;100327.94;;;16.94;100.00
75136;BME280;63707;52.212;9.540;2023-06-14T06:44:48;100334.63;;;17.50;100.00
75136;BME280;63707;52.212;9.540;2023-06-14T06:47:15;100332.75;;;17.39;100.00
75136;BME280;63707;52.212;9.540;2023-06-14T06:49:41;100333.34;;;17.41;100.00
75136;BME280;63707;52.212;9.540;2023-06-14T06:52:07;100335.56;;;17.15;100.00
75136;BME280;63707;52.212;9.540;2023-06-14T06:54:33;100337.78;;;17.42;100.00
75136;BME280;63707;52.212;9.540;2023-06-14T06:56:59;100340.13;;;17.61;100.00
75136;BME280;63707;52.212;9.540;2023-06-14T06:59:25;100345.34;;;18.03;100.00
75136;BME280;63707;52.212;9.540;2023-06-14T07:01:50;100339.59;;;18.38;100.00
75136;BME280;63707;52.212;9.540;2023-06-14T07:04:17;100339.84;;;18.20;100.00
75136;BME280;63707;52.212;9.540;2023-06-14T07:06:43;100351.94;;;17.74;100.00
75136;BME280;63707;52.212;9.540;2023-06-14T07:09:09;100347.69;;;18.11;100.00
75136;BME280;63707;52.212;9.540;2023-06-14T07:11:38;100355.25;;;17.87;100.00
75136;BME280;63707;52.212;9.540;2023-06-14T07:14:03;100343.06;;;18.45;100.00
75136;BME280;63707;52.212;9.540;2023-06-14T07:16:29;100352.31;;;18.39;100.00
75136;BME280;63707;52.212;9.540;2023-06-14T07:18:55;100353.41;;;18.38;100.00
75136;BME280;63707;52.212;9.540;2023-06-14T07:21:22;100352.03;;;19.30;100.00
75136;BME280;63707;52.212;9.540;2023-06-14T07:23:47;100353.81;;;19.58;100.00
75136;BME280;63707;52.212;9.540;2023-06-14T07:26:13;100359.28;;;18.92;100.00
75136;BME280;63707;52.212;9.540;2023-06-14T07:28:38;100353.97;;;18.23;100.00
75136;BME280;63707;52.212;9.540;2023-06-14T07:31:04;100357.19;;;19.21;100.00
75136;BME280;63707;52.212;9.540;2023-06-14T07:33:29;100358.78;;;19.17;100.00
75136;BME280;63707;52.212;9.540;2023-06-14T07:35:55;100367.59;;;18.13;100.00
75136;BME280;63707;52.212;9.540;2023-06-14T07:38:22;100361.78;;;18.60;100.00
75136;BME280;63707;52.212;9.540;2023-06-14T07:40:48;100356.28;;;19.15;100.00
75136;BME280;63707;52.212;9.540;2023-06-14T07:43:13;100362.06;;;19.36;100.00
75136;BME280;63707;52.212;9.540;2023-06-14T07:45:39;100362.66;;;19.81;100.00
75136;BME280;63707;52.212;9.540;2023-06-14T07:48:05;100365.25;;;19.44;100.00
75136;BME280;63707;52.212;9.540;2023-06-14T07:50:30;100356.47;;;20.28;100.00
75136;BME280;63707;52.212;9.540;2023-06-14T07:52:56;100361.03;;;20.12;100.00
75136;BME280;63707;52.212;9.540;2023-06-14T07:55:23;100351.41;;;20.42;100.00
75136;BME280;63707;52.212;9.540;2023-06-14T07:57:50;100360.09;;;20.29;100.00
75136;BME280;63707;52.212;9.540;2023-06-14T08:00:16;100361.38;;;20.43;100.00
75136;BME280;63707;52.212;9.540;2023-06-14T08:02:44;100361.19;;;20.92;100.00
75136;BME280;63707;52.212;9.540;2023-06-14T08:05:09;100357.84;;;21.32;100.00
75136;BME280;63707;52.212;9.540;2023-06-14T08:07:36;100355.88;;;22.00;100.00
75136;BME280;63707;52.212;9.540;2023-06-14T08:10:02;100363.28;;;20.74;100.00
75136;BME280;63707;52.212;9.540;2023-06-14T08:12:29;100363.59;;;19.27;100.00
75136;BME280;63707;52.212;9.540;2023-06-14T08:14:54;100348.19;;;20.55;100.00
75136;BME280;63707;52.212;9.540;2023-06-14T08:17:20;100346.91;;;20.73;100.00
75136;BME280;63707;52.212;9.540;2023-06-14T08:19:46;100368.69;;;21.39;100.00
75136;BME280;63707;52.212;9.540;2023-06-14T08:22:12;100355.44;;;21.56;100.00
75136;BME280;63707;52.212;9.540;2023-06-14T08:24:38;100363.66;;;22.03;100.00
75136;BME280;63707;52.212;9.540;2023-06-14T08:27:05;100372.00;;;20.93;100.00
75136;BME280;63707;52.212;9.540;2023-06-14T08:29:32;100375.47;;;21.73;100.00
75136;BME280;63707;52.212;9.540;2023-06-14T08:31:58;100366.41;;;21.93;100.00
75136;BME280;63707;52.212;9.540;2023-06-14T08:34:23;100366.06;;;20.80;100.00
75136;BME280;63707;52.212;9.540;2023-06-14T08:36:49;100374.03;;;20.39;100.00
75136;BME280;63707;52.212;9.540;2023-06-14T08:39:15;100357.34;;;21.40;100.00
75136;BME280;63707;52.212;9.540;2023-06-14T08:41:42;100368.69;;;21.33;100.00
75136;BME280;63707;52.212;9.540;2023-06-14T08:44:09;100362.84;;;20.56;100.00
75136;BME280;63707;52.212;9.540;2023-06-14T08:46:36;100365.94;;;21.39;100.00
75136;BME280;63707;52.212;9.540;2023-06-14T08:49:02;100367.50;;;20.23;100.00
75136;BME280;63707;52.212;9.540;2023-06-14T08:51:31;100378.25;;;20.41;100.00
75136;BME280;63707;52.212;9.540;2023-06-14T08:54:02;100369.38;;;21.19;100.00
75136;BME280;63707;52.212;9.540;2023-06-14T08:56:29;100371.78;;;21.00;100.00
75136;BME280;63707;52.212;9.540;2023-06-14T08:58:56;100377.56;;;21.41;100.00
75136;BME280;63707;52.212;9.540;2023-06-14T09:01:22;100375.34;;;22.20;100.00
75136;BME280;63707;52.212;9.540;2023-06-14T09:03:50;100371.44;;;22.06;100.00
75136;BME280;63707;52.212;9.540;2023-06-14T09:06:16;100382.59;;;22.57;100.00
75136;BME280;63707;52.212;9.540;2023-06-14T09:08:44;100380.91;;;22.20;100.00
75136;BME280;63707;52.212;9.540;2023-06-14T09:11:11;100382.47;;;21.86;100.00
75136;BME280;63707;52.212;9.540;2023-06-14T09:13:37;100367.63;;;22.53;100.00
75136;BME280;63707;52.212;9.540;2023-06-14T09:16:04;100376.25;;;22.72;100.00
75136;BME280;63707;52.212;9.540;2023-06-14T09:18:34;100384.78;;;23.26;100.00
75136;BME280;63707;52.212;9.540;2023-06-14T09:21:01;100382.06;;;22.35;100.00
75136;BME280;63707;52.212;9.540;2023-06-14T09:23:27;100384.28;;;23.04;100.00
75136;BME280;63707;52.212;9.540;2023-06-14T09:25:52;100387.38;;;23.87;100.00
75136;BME280;63707;52.212;9.540;2023-06-14T09:28:18;100387.31;;;23.97;100.00
75136;BME280;63707;52.212;9.540;2023-06-14T09:30:47;100379.06;;;23.77;100.00
75136;BME280;63707;52.212;9.540;2023-06-14T09:33:17;100381.22;;;24.39;100.00
75136;BME280;63707;52.212;9.540;2023-06-14T09:35:45;100385.47;;;23.77;100.00
75136;BME280;63707;52.212;9.540;2023-06-14T09:38:12;100379.72;;;24.52;100.00
75136;BME280;63707;52.212;9.540;2023-06-14T09:40:37;100389.25;;;23.97;100.00
75136;BME280;63707;52.212;9.540;2023-06-14T09:43:04;100390.00;;;23.48;100.00
75136;BME280;63707;52.212;9.540;2023-06-14T09:45:32;100370.00;;;24.49;100.00
75136;BME280;63707;52.212;9.540;2023-06-14T09:47:58;100393.34;;;24.14;100.00
75136;BME280;63707;52.212;9.540;2023-06-14T09:50:23;100380.91;;;23.22;100.00
75136;BME280;63707;52.212;9.540;2023-06-14T09:52:52;100374.88;;;24.68;100.00
75136;BME280;63707;52.212;9.540;2023-06-14T09:55:22;100364.31;;;24.65;100.00
75136;BME280;63707;52.212;9.540;2023-06-14T09:57:50;100371.06;;;25.17;98.67
75136;BME280;63707;52.212;9.540;2023-06-14T10:00:18;100373.06;;;24.82;100.00
75136;BME280;63707;52.212;9.540;2023-06-14T10:02:49;100372.84;;;25.31;99.58
75136;BME280;63707;52.212;9.540;2023-06-14T10:05:20;100380.69;;;25.29;97.01
75136;BME280;63707;52.212;9.540;2023-06-14T10:07:52;100370.19;;;25.21;98.34
75136;BME280;63707;52.212;9.540;2023-06-14T10:10:18;100372.59;;;24.36;100.00
75136;BME280;63707;52.212;9.540;2023-06-14T10:12:45;100364.50;;;25.31;97.18
75136;BME280;63707;52.212;9.540;2023-06-14T10:15:22;100358.03;;;25.60;100.00
75136;BME280;63707;52.212;9.540;2023-06-14T10:17:54;100362.25;;;25.04;99.16
75136;BME280;63707;52.212;9.540;2023-06-14T10:20:27;100368.50;;;24.91;100.00
75136;BME280;63707;52.212;9.540;2023-06-14T10:22:58;100371.44;;;23.98;99.85
75136;BME280;63707;52.212;9.540;2023-06-14T10:25:28;100364.28;;;24.94;97.88
75136;BME280;63707;52.212;9.540;2023-06-14T10:28:05;100353.53;;;24.53;99.27
75136;BME280;63707;52.212;9.540;2023-06-14T10:30:39;100348.88;;;25.54;100.00
75136;BME280;63707;52.212;9.540;2023-06-14T10:33:05;100355.41;;;24.24;98.43
75136;BME280;63707;52.212;9.540;2023-06-14T10:35:35;100360.16;;;25.20;96.94
75136;BME280;63707;52.212;9.540;2023-06-14T10:38:08;100348.53;;;25.13;98.19
75136;BME280;63707;52.212;9.540;2023-06-14T10:40:34;100354.53;;;25.25;96.75
75136;BME280;63707;52.212;9.540;2023-06-14T10:43:00;100350.53;;;25.79;100.00
75136;BME280;63707;52.212;9.540;2023-06-14T10:45:27;100352.94;;;25.67;96.81
75136;BME280;63707;52.212;9.540;2023-06-14T10:47:52;100343.72;;;25.42;99.03
75136;BME280;63707;52.212;9.540;2023-06-14T10:50:27;100340.91;;;25.42;98.46
75136;BME280;63707;52.212;9.540;2023-06-14T10:52:54;100349.03;;;25.63;92.69
75136;BME280;63707;52.212;9.540;2023-06-14T10:55:21;100349.59;;;25.17;96.20
75136;BME280;63707;52.212;9.540;2023-06-14T10:57:49;100333.66;;;25.65;88.74
75136;BME280;63707;52.212;9.540;2023-06-14T11:00:22;100335.88;;;25.68;88.38
75136;BME280;63707;52.212;9.540;2023-06-14T11:06:12;100349.19;;;25.29;96.67
75136;BME280;63707;52.212;9.540;2023-06-14T11:11:36;100349.41;;;26.18;87.45
75136;BME280;63707;52.212;9.540;2023-06-14T11:14:04;100347.31;;;25.43;92.48
75136;BME280;63707;52.212;9.540;2023-06-14T11:16:30;100346.16;;;24.96;99.76
75136;BME280;63707;52.212;9.540;2023-06-14T11:19:00;100347.66;;;25.18;94.33
75136;BME280;63707;52.212;9.540;2023-06-14T11:21:26;100339.50;;;26.44;85.56
75136;BME280;63707;52.212;9.540;2023-06-14T11:23:56;100328.56;;;26.29;87.44
75136;BME280;63707;52.212;9.540;2023-06-14T11:26:25;100329.47;;;25.68;88.88
75136;BME280;63707;52.212;9.540;2023-06-14T11:28:55;100323.69;;;26.86;86.55
75136;BME280;63707;52.212;9.540;2023-06-14T11:31:20;100317.44;;;27.08;83.22
75136;BME280;63707;52.212;9.540;2023-06-14T11:33:49;100319.50;;;25.38;86.97
75136;BME280;63707;52.212;9.540;2023-06-14T11:36:16;100328.16;;;24.55;98.44
75136;BME280;63707;52.212;9.540;2023-06-14T11:38:42;100337.34;;;23.77;100.00
75136;BME280;63707;52.212;9.540;2023-06-14T11:41:07;100338.97;;;23.03;100.00
75136;BME280;63707;52.212;9.540;2023-06-14T11:43:33;100317.81;;;23.22;100.00
75136;BME280;63707;52.212;9.540;2023-06-14T11:46:00;100316.06;;;24.35;100.00
75136;BME280;63707;52.212;9.540;2023-06-14T11:48:36;100316.50;;;23.69;100.00
75136;BME280;63707;52.212;9.540;2023-06-14T11:51:01;100312.16;;;24.70;100.00
75136;BME280;63707;52.212;9.540;2023-06-14T11:53:28;100318.28;;;24.96;100.00
75136;BME280;63707;52.212;9.540;2023-06-14T11:55:54;100306.69;;;24.84;100.00
75136;BME280;63707;52.212;9.540;2023-06-14T11:58:19;100311.28;;;24.02;100.00
75136;BME280;63707;52.212;9.540;2023-06-14T12:00:48;100315.94;;;22.87;100.00
75136;BME280;63707;52.212;9.540;2023-06-14T12:03:14;100314.19;;;24.26;100.00
75136;BME280;63707;52.212;9.540;2023-06-14T12:05:39;100310.47;;;24.40;100.00
75136;BME280;63707;52.212;9.540;2023-06-14T12:08:05;100313.72;;;23.64;100.00
75136;BME280;63707;52.212;9.540;2023-06-14T12:10:41;100305.03;;;24.20;100.00
75136;BME280;63707;52.212;9.540;2023-06-14T12:13:09;100306.47;;;23.73;100.00
75136;BME280;63707;52.212;9.540;2023-06-14T12:15:35;100308.06;;;24.24;100.00
75136;BME280;63707;52.212;9.540;2023-06-14T12:18:00;100313.94;;;23.78;100.00
75136;BME280;63707;52.212;9.540;2023-06-14T12:20:29;100294.78;;;24.78;100.00
75136;BME280;63707;52.212;9.540;2023-06-14T12:22:56;100296.75;;;25.50;100.00
75136;BME280;63707;52.212;9.540;2023-06-14T12:25:27;100299.66;;;25.39;100.00
75136;BME280;63707;52.212;9.540;2023-06-14T12:27:54;100295.38;;;24.75;100.00
75136;BME280;63707;52.212;9.540;2023-06-14T12:30:20;100301.91;;;24.27;100.00
75136;BME280;63707;52.212;9.540;2023-06-14T12:32:46;100303.13;;;24.78;100.00
75136;BME280;63707;52.212;9.540;2023-06-14T12:35:11;100300.97;;;23.53;100.00
75136;BME280;63707;52.212;9.540;2023-06-14T12:37:37;100302.84;;;24.12;100.00
75136;BME280;63707;52.212;9.540;2023-06-14T12:40:03;100316.47;;;22.95;100.00
75136;BME280;63707;52.212;9.540;2023-06-14T12:42:31;100312.28;;;23.77;100.00
75136;BME280;63707;52.212;9.540;2023-06-14T12:44:58;100299.38;;;24.64;100.00